sensor_id;sensor_type;location;lat;lon;timestamp;P1;durP1;ratioP1;P2;durP2;ratioP2
61702;SDS011;47622;47.726;3.298;2023-08-17T00:00:59;4.60;;;3.58;;
61702;SDS011;47622;47.726;3.298;2023-08-17T00:03:25;3.90;;;3.50;;
61702;SDS011;47622;47.726;3.298;2023-08-17T00:05:50;6.20;;;3.83;;
61702;SDS011;47622;47.726;3.298;2023-08-17T00:08:16;4.85;;;3.40;;
61702;SDS011;47622;47.726;3.298;2023-08-17T00:10:42;5.18;;;3.22;;
61702;SDS011;47622;47.726;3.298;2023-08-17T00:13:08;7.30;;;3.60;;
61702;SDS011;47622;47.726;3.298;2023-08-17T00:15:34;6.20;;;3.13;;
61702;SDS011;47622;47.726;3.298;2023-08-17T00:18:00;5.15;;;2.97;;
61702;SDS011;47622;47.726;3.298;2023-08-17T00:20:25;5.43;;;3.35;;
61702;SDS011;47622;47.726;3.298;2023-08-17T00:22:51;5.15;;;3.10;;
61702;SDS011;47622;47.726;3.298;2023-08-17T00:25:17;6.68;;;3.90;;
61702;SDS011;47622;47.726;3.298;2023-08-17T00:27:42;5.60;;;3.83;;
61702;SDS011;47622;47.726;3.298;2023-08-17T00:30:08;5.63;;;3.58;;
61702;SDS011;47622;47.726;3.298;2023-08-17T00:32:33;4.90;;;3.75;;
61702;SDS011;47622;47.726;3.298;2023-08-17T00:34:59;6.32;;;4.07;;
61702;SDS011;47622;47.726;3.298;2023-08-17T00:37:25;6.72;;;3.25;;
61702;SDS011;47622;47.726;3.298;2023-08-17T00:39:50;9.35;;;3.75;;
61702;SDS011;47622;47.726;3.298;2023-08-17T00:42:16;4.55;;;3.47;;
61702;SDS011;47622;47.726;3.298;2023-08-17T00:44:41;6.43;;;3.92;;
61702;SDS011;47622;47.726;3.298;2023-08-17T00:47:07;4.78;;;3.80;;
61702;SDS011;47622;47.726;3.298;2023-08-17T00:49:32;7.53;;;4.10;;
61702;SDS011;47622;47.726;3.298;2023-08-17T00:51:59;5.70;;;4.45;;
61702;SDS011;47622;47.726;3.298;2023-08-17T00:54:26;10.80;;;5.10;;
61702;SDS011;47622;47.726;3.298;2023-08-17T00:56:52;23.00;;;6.00;;
61702;SDS011;47622;47.726;3.298;2023-08-17T00:59:20;16.20;;;5.85;;
61702;SDS011;47622;47.726;3.298;2023-08-17T01:01:46;8.38;;;5.05;;
61702;SDS011;47622;47.726;3.298;2023-08-17T01:04:12;9.07;;;5.60;;
61702;SDS011;47622;47.726;3.298;2023-08-17T01:06:38;8.15;;;4.85;;
61702;SDS011;47622;47.726;3.298;2023-08-17T01:09:03;14.00;;;4.88;;
61702;SDS011;47622;47.726;3.298;2023-08-17T01:11:32;8.50;;;5.28;;
61702;SDS011;47622;47.726;3.298;2023-08-17T01:14:37;18.73;;;6.53;;
61702;SDS011;47622;47.726;3.298;2023-08-17T01:17:06;6.72;;;5.07;;
61702;SDS011;47622;47.726;3.298;2023-08-17T01:19:42;14.93;;;6.22;;
61702;SDS011;47622;47.726;3.298;2023-08-17T01:22:10;20.55;;;7.47;;
61702;SDS011;47622;47.726;3.298;2023-08-17T01:24:39;13.02;;;5.93;;
61702;SDS011;47622;47.726;3.298;2023-08-17T01:27:06;8.25;;;5.38;;
61702;SDS011;47622;47.726;3.298;2023-08-17T01:29:32;9.32;;;5.38;;
61702;SDS011;47622;47.726;3.298;2023-08-17T01:32:16;10.55;;;5.78;;
61702;SDS011;47622;47.726;3.298;2023-08-17T01:34:54;8.60;;;5.43;;
61702;SDS011;47622;47.726;3.298;2023-08-17T01:37:41;8.55;;;5.57;;
61702;SDS011;47622;47.726;3.298;2023-08-17T01:40:08;10.45;;;5.90;;
61702;SDS011;47622;47.726;3.298;2023-08-17T01:42:36;7.55;;;5.25;;
61702;SDS011;47622;47.726;3.298;2023-08-17T01:45:02;9.00;;;5.22;;
61702;SDS011;47622;47.726;3.298;2023-08-17T01:47:28;10.00;;;5.80;;
61702;SDS011;47622;47.726;3.298;2023-08-17T01:49:55;12.57;;;6.65;;
61702;SDS011;47622;47.726;3.298;2023-08-17T01:52:25;8.93;;;5.90;;
61702;SDS011;47622;47.726;3.298;2023-08-17T01:54:53;8.60;;;5.82;;
61702;SDS011;47622;47.726;3.298;2023-08-17T01:57:19;7.72;;;5.13;;
61702;SDS011;47622;47.726;3.298;2023-08-17T01:59:44;8.65;;;5.20;;
61702;SDS011;47622;47.726;3.298;2023-08-17T02:02:10;9.13;;;5.40;;
61702;SDS011;47622;47.726;3.298;2023-08-17T02:04:37;6.00;;;5.07;;
61702;SDS011;47622;47.726;3.298;2023-08-17T02:07:03;11.77;;;5.60;;
61702;SDS011;47622;47.726;3.298;2023-08-17T02:09:28;8.23;;;5.18;;
61702;SDS011;47622;47.726;3.298;2023-08-17T02:11:54;11.25;;;5.55;;
61702;SDS011;47622;47.726;3.298;2023-08-17T02:14:19;11.02;;;5.90;;
61702;SDS011;47622;47.726;3.298;2023-08-17T02:16:45;8.70;;;5.45;;
61702;SDS011;47622;47.726;3.298;2023-08-17T02:19:10;11.40;;;6.00;;
61702;SDS011;47622;47.726;3.298;2023-08-17T02:21:36;8.38;;;5.72;;
61702;SDS011;47622;47.726;3.298;2023-08-17T02:24:02;10.05;;;5.30;;
61702;SDS011;47622;47.726;3.298;2023-08-17T02:26:28;8.70;;;5.32;;
61702;SDS011;47622;47.726;3.298;2023-08-17T02:28:55;9.93;;;5.63;;
61702;SDS011;47622;47.726;3.298;2023-08-17T02:31:20;8.48;;;5.72;;
61702;SDS011;47622;47.726;3.298;2023-08-17T02:33:46;11.20;;;5.13;;
61702;SDS011;47622;47.726;3.298;2023-08-17T02:36:11;10.13;;;5.97;;
61702;SDS011;47622;47.726;3.298;2023-08-17T02:38:37;8.82;;;5.45;;
61702;SDS011;47622;47.726;3.298;2023-08-17T02:41:03;7.93;;;5.07;;
61702;SDS011;47622;47.726;3.298;2023-08-17T02:43:28;11.88;;;5.50;;
61702;SDS011;47622;47.726;3.298;2023-08-17T02:45:54;16.80;;;6.28;;
61702;SDS011;47622;47.726;3.298;2023-08-17T02:48:20;11.52;;;6.07;;
61702;SDS011;47622;47.726;3.298;2023-08-17T02:50:45;8.10;;;5.22;;
61702;SDS011;47622;47.726;3.298;2023-08-17T02:53:11;7.15;;;5.15;;
61702;SDS011;47622;47.726;3.298;2023-08-17T02:55:36;5.53;;;4.60;;
61702;SDS011;47622;47.726;3.298;2023-08-17T02:58:02;7.15;;;5.13;;
61702;SDS011;47622;47.726;3.298;2023-08-17T03:00:28;7.72;;;4.70;;
61702;SDS011;47622;47.726;3.298;2023-08-17T03:02:53;6.32;;;4.82;;
61702;SDS011;47622;47.726;3.298;2023-08-17T03:05:19;6.80;;;4.20;;
